Time;durP1;ratioP1;P1;durP2;ratioP2;P2;SDS_P1;SDS_P2;PMS_P1;PMS_P2;Temp;Humidity;BMP_temperature;BMP_pressure;BME280_temperature;BME280_humidity;BME280_pressure;Samples;Min_cycle;Max_cycle;Signal;HPM_P1;HPM_P2
2021/07/24 00:00:27;;;;;;;16.35;10.95;;;17.20;99.90;;;;;;5052170;28;20028;-73
2021/07/24 00:02:53;;;;;;;10.85;9.75;;;17.20;99.90;;;;;;5051165;28;20021;-73
2021/07/24 00:05:19;;;;;;;14.50;10.15;;;17.20;99.90;;;;;;5052465;28;20045;-73
2021/07/24 00:07:44;;;;;;;15.18;10.07;;;17.20;99.90;;;;;;5051613;28;20539;-73
2021/07/24 00:10:10;;;;;;;15.13;10.43;;;17.20;99.90;;;;;;5051373;28;20542;-73
2021/07/24 00:12:35;;;;;;;11.52;9.93;;;17.10;99.90;;;;;;5052010;28;20031;-73
2021/07/24 00:15:01;;;;;;;11.45;10.25;;;17.10;99.90;;;;;;5051784;28;20029;-73
2021/07/24 00:17:27;;;;;;;14.23;11.00;;;17.10;99.90;;;;;;5051693;28;20043;-73
2021/07/24 00:19:52;;;;;;;13.25;11.02;;;17.00;99.90;;;;;;5051589;28;20014;-73
2021/07/24 00:22:18;;;;;;;11.70;10.60;;;17.00;99.90;;;;;;5051455;28;20025;-73
2021/07/24 00:24:43;;;;;;;15.07;11.02;;;16.90;99.90;;;;;;5051279;28;20373;-73
2021/07/24 00:27:09;;;;;;;13.55;11.13;;;16.90;99.90;;;;;;5051508;28;20066;-72
2021/07/24 00:29:35;;;;;;;17.20;10.68;;;16.90;99.90;;;;;;5052654;28;20030;-74
2021/07/24 00:32:01;;;;;;;14.88;11.25;;;16.90;99.90;;;;;;5050784;28;20111;-73
2021/07/24 00:34:27;;;;;;;11.73;10.25;;;16.80;99.90;;;;;;5037878;28;20116;-74
2021/07/24 00:36:55;;;;;;;16.38;10.02;;;16.80;99.90;;;;;;5051310;28;20045;-74
2021/07/24 00:39:21;;;;;;;15.23;11.02;;;16.70;99.90;;;;;;5050988;28;20021;-73
2021/07/24 00:41:51;;;;;;;12.63;10.07;;;16.80;99.90;;;;;;5051619;28;20032;-73
2021/07/24 00:44:20;;;;;;;14.52;10.80;;;16.70;99.90;;;;;;5053440;28;20477;-73
2021/07/24 00:46:46;;;;;;;11.65;10.55;;;16.70;99.90;;;;;;5054313;28;20033;-73
2021/07/24 00:49:13;;;;;;;13.02;10.85;;;16.70;99.90;;;;;;5055103;28;20032;-73
2021/07/24 00:51:44;;;;;;;14.32;9.85;;;16.70;99.90;;;;;;5055369;28;20113;-73
2021/07/24 00:54:10;;;;;;;17.10;11.60;;;16.70;99.90;;;;;;5054459;28;20539;-73
2021/07/24 00:56:38;;;;;;;17.60;11.60;;;16.70;99.90;;;;;;5055378;28;20127;-73
2021/07/24 00:59:04;;;;;;;12.82;10.55;;;16.60;99.90;;;;;;5054560;28;20029;-74
2021/07/24 01:01:29;;;;;;;13.02;10.57;;;16.60;99.90;;;;;;5054848;28;20029;-72
2021/07/24 01:04:01;;;;;;;21.80;12.00;;;16.60;99.90;;;;;;5054571;28;20108;-73
2021/07/24 01:06:26;;;;;;;13.57;11.35;;;16.60;99.90;;;;;;5054626;28;20025;-72
2021/07/24 01:08:52;;;;;;;14.27;10.70;;;16.50;99.90;;;;;;5054505;28;20020;-73
2021/07/24 01:11:18;;;;;;;15.85;11.05;;;16.50;99.90;;;;;;5054939;28;20091;-73
2021/07/24 01:13:44;;;;;;;15.20;11.52;;;16.50;99.90;;;;;;5053718;28;20368;-74
2021/07/24 01:16:12;;;;;;;15.57;10.85;;;16.50;99.90;;;;;;5054606;28;20047;-72
2021/07/24 01:18:38;;;;;;;12.43;11.13;;;16.50;99.90;;;;;;5054607;28;20472;-73
2021/07/24 01:21:07;;;;;;;16.17;11.90;;;16.50;99.90;;;;;;5040521;28;20040;-73
2021/07/24 01:23:32;;;;;;;14.50;10.70;;;16.40;99.90;;;;;;5054935;28;20028;-72
2021/07/24 01:25:58;;;;;;;14.93;11.02;;;16.40;99.90;;;;;;5054542;28;20021;-73
2021/07/24 01:28:35;;;;;;;13.93;11.63;;;16.40;99.90;;;;;;5053819;28;20031;-72
2021/07/24 01:31:03;;;;;;;15.35;12.25;;;16.40;99.90;;;;;;5054175;28;20025;-72
2021/07/24 01:33:29;;;;;;;18.65;12.60;;;16.30;99.90;;;;;;5054384;28;20049;-74
2021/07/24 01:35:54;;;;;;;14.85;11.07;;;16.30;99.90;;;;;;5053186;28;20065;-72
2021/07/24 01:38:21;;;;;;;12.57;11.20;;;16.30;99.90;;;;;;5054308;28;20117;-72
2021/07/24 01:40:47;;;;;;;19.50;12.60;;;16.20;99.90;;;;;;5054140;28;20376;-73
2021/07/24 01:43:13;;;;;;;19.70;12.45;;;16.30;99.90;;;;;;5053838;28;20028;-73
2021/07/24 01:45:40;;;;;;;22.05;12.30;;;16.30;99.90;;;;;;5054273;28;20025;-72
2021/07/24 01:53:39;;;;;;;13.63;11.77;;;16.10;99.90;;;;;;5054068;28;20507;-72
2021/07/24 01:56:09;;;;;;;18.02;13.40;;;16.10;99.90;;;;;;5052819;28;20033;-73
2021/07/24 01:58:36;;;;;;;14.80;12.32;;;16.10;99.90;;;;;;5054021;28;20029;-73
2021/07/24 02:01:04;;;;;;;18.48;12.98;;;16.10;99.90;;;;;;5053727;28;20052;-73
2021/07/24 02:03:38;;;;;;;24.35;11.82;;;16.10;99.90;;;;;;5053063;28;20036;-73
2021/07/24 02:06:04;;;;;;;17.85;12.50;;;16.10;99.90;;;;;;5053503;28;20567;-73
2021/07/24 02:08:32;;;;;;;16.63;12.43;;;16.10;99.90;;;;;;5053559;28;20104;-73
2021/07/24 02:10:59;;;;;;;15.43;12.15;;;16.00;99.90;;;;;;5052850;28;20025;-73
2021/07/24 02:13:25;;;;;;;14.25;10.88;;;16.00;99.90;;;;;;5053671;28;20021;-73
2021/07/24 02:15:52;;;;;;;17.60;12.18;;;16.00;99.90;;;;;;5053274;28;20465;-74
2021/07/24 02:18:19;;;;;;;25.00;12.95;;;16.00;99.90;;;;;;5053114;28;20040;-74
2021/07/24 02:20:45;;;;;;;18.30;12.77;;;15.90;99.90;;;;;;5053037;28;20083;-73
2021/07/24 02:23:11;;;;;;;16.08;12.57;;;15.90;99.90;;;;;;5053488;28;20083;-72
2021/07/24 02:25:37;;;;;;;19.55;12.63;;;15.80;99.90;;;;;;5052742;28;20389;-72
2021/07/24 02:28:02;;;;;;;17.88;12.43;;;15.80;99.90;;;;;;5053458;28;20017;-72
2021/07/24 02:30:28;;;;;;;14.80;12.23;;;15.80;99.90;;;;;;5052446;28;20033;-72
2021/07/24 02:32:53;;;;;;;17.05;12.55;;;15.70;99.90;;;;;;5053070;28;20020;-73
2021/07/24 02:35:19;;;;;;;21.50;13.25;;;15.80;99.90;;;;;;5052986;28;20040;-72
2021/07/24 02:37:44;;;;;;;13.40;12.05;;;15.70;99.90;;;;;;5051802;28;20159;-73
2021/07/24 02:40:10;;;;;;;19.27;13.43;;;15.70;99.90;;;;;;5053403;28;20029;-73
2021/07/24 02:42:36;;;;;;;17.45;12.57;;;15.70;99.90;;;;;;5052943;28;20094;-72
2021/07/24 02:45:02;;;;;;;18.45;13.07;;;15.60;99.90;;;;;;5051974;28;20464;-72
2021/07/24 02:47:28;;;;;;;16.27;12.68;;;15.60;99.90;;;;;;5052784;28;20106;-72
2021/07/24 02:49:53;;;;;;;19.33;13.45;;;15.60;99.90;;;;;;5038623;28;20052;-73
2021/07/24 02:52:19;;;;;;;19.63;13.93;;;15.70;99.90;;;;;;5052238;28;20029;-73
2021/07/24 02:54:44;;;;;;;16.60;12.63;;;15.60;99.90;;;;;;5052634;28;20457;-73
2021/07/24 02:57:13;;;;;;;23.67;12.02;;;15.60;99.90;;;;;;5052806;28;20473;-73
2021/07/24 02:59:38;;;;;;;17.60;12.45;;;15.70;99.90;;;;;;5051991;28;20079;-72
2021/07/24 03:02:04;;;;;;;15.65;12.73;;;15.60;99.90;;;;;;5052307;28;20021;-73
2021/07/24 03:04:30;;;;;;;16.58;12.23;;;15.60;99.90;;;;;;5052428;28;20066;-73
2021/07/24 03:06:55;;;;;;;20.20;13.50;;;15.60;99.90;;;;;;5051071;28;20025;-74
2021/07/24 03:09:21;;;;;;;17.67;13.02;;;15.60;99.90;;;;;;5052924;28;20459;-73
2021/07/24 03:11:46;;;;;;;15.35;12.60;;;15.60;99.90;;;;;;5052181;28;20403;-72
2021/07/24 03:14:12;;;;;;;21.08;13.38;;;15.60;99.90;;;;;;5051594;28;20064;-72
2021/07/24 03:16:37;;;;;;;17.98;12.82;;;15.60;99.90;;;;;;5050358;28;20029;-73
2021/07/24 03:19:03;;;;;;;16.27;13.57;;;15.50;99.90;;;;;;5040241;28;20028;-73
2021/07/24 03:21:29;;;;;;;20.40;12.73;;;15.50;99.90;;;;;;5051823;28;20120;-73
2021/07/24 03:23:54;;;;;;;15.80;13.70;;;15.50;99.90;;;;;;5052227;28;20368;-72
2021/07/24 03:26:20;;;;;;;22.48;13.63;;;15.50;99.90;;;;;;5052392;28;20029;-73
2021/07/24 03:28:46;;;;;;;15.25;12.18;;;15.40;99.90;;;;;;5051100;28;20029;-73
2021/07/24 03:31:13;;;;;;;18.20;13.10;;;15.40;99.90;;;;;;5052766;28;20033;-73
2021/07/24 03:33:38;;;;;;;24.77;13.75;;;15.40;99.90;;;;;;5052702;28;20032;-73
2021/07/24 03:36:04;;;;;;;20.92;13.43;;;15.40;99.90;;;;;;5051487;28;20043;-73
2021/07/24 03:38:31;;;;;;;19.75;13.75;;;15.40;99.90;;;;;;5052953;28;20044;-74
2021/07/24 03:40:57;;;;;;;17.50;14.05;;;15.30;99.90;;;;;;5051301;28;20163;-73
2021/07/24 03:43:22;;;;;;;18.95;13.32;;;15.30;99.90;;;;;;5051932;28;20056;-73
2021/07/24 03:45:48;;;;;;;19.05;13.88;;;15.30;99.90;;;;;;5051502;28;20028;-73
2021/07/24 03:48:13;;;;;;;21.13;13.70;;;15.20;99.90;;;;;;5051402;28;20465;-72
2021/07/24 03:50:40;;;;;;;18.75;13.90;;;15.30;99.90;;;;;;5051819;28;20021;-73
2021/07/24 03:53:06;;;;;;;22.77;13.32;;;15.20;99.90;;;;;;5051753;28;20028;-73
2021/07/24 03:55:34;;;;;;;18.35;13.13;;;15.20;99.90;;;;;;5051465;28;20013;-73
2021/07/24 03:58:00;;;;;;;25.35;13.90;;;15.20;99.90;;;;;;5051392;28;20075;-72
2021/07/24 04:00:26;;;;;;;23.70;14.30;;;15.30;99.90;;;;;;5051811;28;20447;-74
2021/07/24 04:02:52;;;;;;;20.75;13.95;;;15.30;99.90;;;;;;5050582;28;20112;-73
2021/07/24 04:05:18;;;;;;;15.60;12.38;;;15.30;99.90;;;;;;5052163;28;20013;-73
2021/07/24 04:07:44;;;;;;;17.42;12.60;;;15.30;99.90;;;;;;5052108;28;20408;-74
2021/07/24 04:10:11;;;;;;;17.17;12.95;;;15.40;99.90;;;;;;5037422;28;20021;-72
2021/07/24 04:12:41;;;;;;;17.75;12.65;;;15.30;99.90;;;;;;5052372;28;20079;-73
2021/07/24 04:15:07;;;;;;;18.02;13.23;;;15.40;99.90;;;;;;5051742;28;20056;-73
2021/07/24 04:17:33;;;;;;;16.33;13.00;;;15.40;99.90;;;;;;5051176;28;20079;-73
2021/07/24 04:19:59;;;;;;;15.73;13.07;;;15.40;99.90;;;;;;5055020;28;20029;-73
2021/07/24 04:22:27;;;;;;;17.45;12.23;;;15.50;99.90;;;;;;5056051;28;20037;-73
2021/07/24 04:24:52;;;;;;;15.95;13.02;;;15.60;99.90;;;;;;5056731;28;20081;-73
2021/07/24 04:27:18;;;;;;;19.80;13.00;;;15.70;99.90;;;;;;5055882;28;20021;-74
2021/07/24 04:29:43;;;;;;;18.20;11.52;;;15.70;99.90;;;;;;5055449;28;20013;-74
2021/07/24 04:32:09;;;;;;;15.57;12.35;;;15.80;99.90;;;;;;5054778;28;20025;-74
2021/07/24 04:34:34;;;;;;;17.55;12.73;;;15.90;99.90;;;;;;5055308;28;20032;-73
2021/07/24 04:37:00;;;;;;;16.02;11.43;;;16.00;99.90;;;;;;5054366;28;20053;-73
2021/07/24 04:39:26;;;;;;;17.45;12.77;;;16.00;99.90;;;;;;5055319;28;20025;-73
2021/07/24 04:41:51;;;;;;;18.48;12.52;;;16.10;99.90;;;;;;5055738;28;20057;-73
2021/07/24 04:44:17;;;;;;;21.05;13.10;;;16.10;99.90;;;;;;5054594;28;20385;-73
2021/07/24 04:46:43;;;;;;;17.10;11.93;;;16.10;99.90;;;;;;5054965;28;20037;-73
2021/07/24 04:49:09;;;;;;;20.73;12.57;;;16.10;99.90;;;;;;5055111;28;20461;-74
2021/07/24 04:51:35;;;;;;;18.45;12.52;;;16.20;99.90;;;;;;5054257;28;20112;-73
2021/07/24 04:54:03;;;;;;;19.38;12.55;;;16.20;99.90;;;;;;5042949;28;20026;-73
2021/07/24 04:56:32;;;;;;;24.30;12.50;;;16.30;99.90;;;;;;5053059;28;20033;-74
2021/07/24 04:59:01;;;;;;;16.75;11.80;;;16.30;99.90;;;;;;5053888;28;20075;-73
2021/07/24 05:01:26;;;;;;;22.73;12.15;;;16.30;99.90;;;;;;5054597;28;20124;-74
2021/07/24 05:03:52;;;;;;;19.45;12.90;;;16.30;99.90;;;;;;5054501;28;20468;-72
2021/07/24 05:06:18;;;;;;;13.27;11.20;;;16.40;99.90;;;;;;5053909;28;20017;-73
2021/07/24 05:08:43;;;;;;;18.40;13.07;;;16.40;99.90;;;;;;5054755;28;20036;-73
2021/07/24 05:11:09;;;;;;;14.98;11.95;;;16.50;99.90;;;;;;5054707;28;20538;-74
2021/07/24 05:13:34;;;;;;;17.98;12.45;;;16.60;99.90;;;;;;5054058;28;20037;-73
2021/07/24 05:16:00;;;;;;;15.90;12.05;;;16.60;99.90;;;;;;5054071;28;20029;-73
2021/07/24 05:18:26;;;;;;;14.20;12.43;;;17.20;99.90;;;;;;5054279;28;20040;-73
2021/07/24 05:20:51;;;;;;;13.73;11.85;;;17.40;99.90;;;;;;5053330;28;20025;-73
2021/07/24 05:23:17;;;;;;;17.38;12.85;;;16.80;99.90;;;;;;5054606;28;20028;-74
2021/07/24 05:25:42;;;;;;;16.05;12.48;;;16.90;99.90;;;;;;5050486;28;20084;-73
2021/07/24 05:28:08;;;;;;;19.38;12.38;;;17.00;99.90;;;;;;5032128;28;20120;-72
2021/07/24 05:30:34;;;;;;;14.23;11.48;;;17.10;99.90;;;;;;5034630;28;20026;-73
2021/07/24 05:33:00;;;;;;;17.35;11.60;;;17.30;99.90;;;;;;5054085;28;20043;-74
2021/07/24 05:35:26;;;;;;;16.85;12.13;;;17.30;99.90;;;;;;5053474;28;20032;-74
2021/07/24 05:37:51;;;;;;;20.60;12.40;;;17.40;99.90;;;;;;5039724;28;20036;-72
2021/07/24 05:40:17;;;;;;;13.02;11.40;;;17.40;99.90;;;;;;5053796;28;20052;-73
2021/07/24 05:42:42;;;;;;;19.83;12.75;;;17.40;99.90;;;;;;5054064;28;20079;-73
2021/07/24 05:45:08;;;;;;;14.82;11.93;;;17.50;99.90;;;;;;5053537;28;20025;-72
2021/07/24 05:47:34;;;;;;;14.60;12.00;;;17.50;99.90;;;;;;5053539;28;20032;-73
2021/07/24 05:50:01;;;;;;;16.25;12.02;;;17.60;99.90;;;;;;5053958;28;20526;-74
2021/07/24 05:52:26;;;;;;;15.05;11.90;;;17.60;99.90;;;;;;5054395;28;20065;-73
2021/07/24 05:54:53;;;;;;;17.48;11.02;;;17.60;99.90;;;;;;5047872;28;20064;-73
2021/07/24 05:57:18;;;;;;;19.10;12.45;;;17.70;99.90;;;;;;5044743;28;20060;-73
2021/07/24 05:59:44;;;;;;;20.02;12.50;;;17.70;99.90;;;;;;5053515;28;20380;-73
2021/07/24 06:02:13;;;;;;;14.75;11.75;;;17.80;99.90;;;;;;5053746;28;20021;-73
2021/07/24 06:04:39;;;;;;;18.85;11.45;;;17.80;99.90;;;;;;5054337;28;20108;-73
2021/07/24 06:07:05;;;;;;;18.17;11.73;;;17.90;99.90;;;;;;5053720;28;20056;-73
2021/07/24 06:09:31;;;;;;;14.52;11.80;;;18.00;99.90;;;;;;5054128;28;20036;-74
2021/07/24 06:11:57;;;;;;;17.48;11.85;;;18.00;99.90;;;;;;5053203;28;20020;-73
2021/07/24 06:14:23;;;;;;;14.32;11.57;;;18.10;99.90;;;;;;5042067;28;20022;-72
2021/07/24 06:16:50;;;;;;;18.20;12.60;;;18.10;99.90;;;;;;5050103;28;20033;-73
2021/07/24 06:19:16;;;;;;;14.90;12.00;;;18.10;99.90;;;;;;5053293;28;20112;-73
2021/07/24 06:21:43;;;;;;;13.77;11.75;;;18.10;99.90;;;;;;5053265;28;20132;-74
2021/07/24 06:24:09;;;;;;;15.30;12.10;;;18.10;99.90;;;;;;5052638;28;20365;-74
2021/07/24 06:26:38;;;;;;;15.27;11.75;;;18.10;99.90;;;;;;5053365;28;20036;-74
2021/07/24 06:29:05;;;;;;;15.13;11.57;;;18.20;99.90;;;;;;5053277;28;20021;-73
2021/07/24 06:31:30;;;;;;;15.85;11.50;;;18.30;99.90;;;;;;5052597;28;20362;-73
2021/07/24 06:33:56;;;;;;;14.45;10.90;;;18.40;99.90;;;;;;5052906;28;20075;-73
2021/07/24 06:36:21;;;;;;;16.20;12.55;;;18.50;99.90;;;;;;5052942;28;20055;-74
2021/07/24 06:38:47;;;;;;;15.25;11.73;;;18.50;99.90;;;;;;5052113;28;20025;-73
2021/07/24 06:41:12;;;;;;;15.20;11.45;;;18.60;99.90;;;;;;5052228;28;20025;-73
2021/07/24 06:43:38;;;;;;;16.17;11.60;;;18.70;99.90;;;;;;5052247;28;20407;-73
2021/07/24 06:46:10;;;;;;;18.17;12.75;;;18.80;99.90;;;;;;5052635;28;20464;-73
2021/07/24 06:48:36;;;;;;;14.00;11.80;;;18.80;99.90;;;;;;5052805;28;20493;-73
2021/07/24 06:51:01;;;;;;;16.13;11.57;;;18.80;99.90;;;;;;5051405;28;20039;-73
2021/07/24 06:53:27;;;;;;;22.48;12.13;;;18.80;99.90;;;;;;5052831;28;20063;-73
2021/07/24 06:55:56;;;;;;;15.27;11.50;;;18.80;99.90;;;;;;5052522;28;20431;-73
2021/07/24 06:58:22;;;;;;;14.32;12.02;;;18.90;99.90;;;;;;5052188;28;20476;-74
2021/07/24 07:00:48;;;;;;;16.45;11.35;;;18.90;99.90;;;;;;5053206;28;20024;-73
2021/07/24 07:03:13;;;;;;;14.25;11.48;;;19.00;99.90;;;;;;5052619;28;20028;-74
2021/07/24 07:05:39;;;;;;;15.23;11.57;;;19.00;99.90;;;;;;5052104;28;20070;-73
2021/07/24 07:08:04;;;;;;;18.45;12.00;;;19.00;99.90;;;;;;5052503;28;20119;-72
2021/07/24 07:10:30;;;;;;;14.18;11.55;;;19.00;99.90;;;;;;5052453;28;20131;-72
2021/07/24 07:12:56;;;;;;;16.95;12.00;;;19.10;99.90;;;;;;5051936;28;20385;-73
2021/07/24 07:15:24;;;;;;;19.58;11.27;;;19.10;99.90;;;;;;5052612;28;20029;-73
2021/07/24 07:17:51;;;;;;;17.23;11.57;;;19.20;99.90;;;;;;5052108;28;20033;-74
2021/07/24 07:20:20;;;;;;;19.30;12.27;;;19.30;99.90;;;;;;5051583;28;20027;-73
2021/07/24 07:22:45;;;;;;;13.95;11.70;;;19.40;99.90;;;;;;5052069;28;20500;-73
2021/07/24 07:25:11;;;;;;;14.48;12.10;;;19.50;99.90;;;;;;5052042;28;20033;-73
2021/07/24 07:27:44;;;;;;;19.27;11.85;;;19.50;99.90;;;;;;5051823;28;20033;-74
2021/07/24 07:30:12;;;;;;;15.00;12.02;;;19.60;99.90;;;;;;5052248;28;20033;-73
2021/07/24 07:32:38;;;;;;;17.48;11.27;;;19.70;99.90;;;;;;5052128;28;20025;-73
2021/07/24 07:35:04;;;;;;;13.68;12.10;;;19.70;99.90;;;;;;5051516;28;20025;-74
2021/07/24 07:37:30;;;;;;;18.67;12.00;;;19.80;99.90;;;;;;5051719;28;20048;-72
2021/07/24 07:39:56;;;;;;;21.88;11.90;;;19.80;99.90;;;;;;5051486;28;20031;-72
2021/07/24 07:42:22;;;;;;;15.60;11.80;;;20.00;99.90;;;;;;5052641;28;20059;-72
2021/07/24 07:44:47;;;;;;;13.80;12.10;;;20.00;99.90;;;;;;5051982;28;20017;-72
2021/07/24 07:47:13;;;;;;;12.55;11.25;;;20.10;99.90;;;;;;5051510;28;20441;-73
2021/07/24 07:49:39;;;;;;;15.45;11.43;;;20.10;99.90;;;;;;5052177;28;20096;-74
2021/07/24 07:52:06;;;;;;;13.38;11.40;;;20.20;99.90;;;;;;5051893;28;20477;-73
2021/07/24 07:54:33;;;;;;;15.80;11.35;;;20.30;99.90;;;;;;5055208;28;20507;-73
2021/07/24 07:56:59;;;;;;;16.25;11.40;;;20.30;99.90;;;;;;5055622;28;20048;-73
2021/07/24 07:59:25;;;;;;;14.50;12.27;;;20.30;99.90;;;;;;5055866;28;20059;-72
2021/07/24 08:01:50;;;;;;;13.88;12.10;;;20.40;99.90;;;;;;5055043;28;20028;-74
2021/07/24 08:04:16;;;;;;;14.18;12.63;;;20.40;99.90;;;;;;5055933;28;20036;-73
2021/07/24 08:06:41;;;;;;;14.95;12.63;;;20.50;99.90;;;;;;5055919;28;20055;-73
2021/07/24 08:09:07;;;;;;;14.98;11.65;;;20.40;99.90;;;;;;5055117;28;20126;-73
2021/07/24 08:11:32;;;;;;;22.50;12.95;;;20.50;99.90;;;;;;5055773;28;20077;-73
2021/07/24 08:13:58;;;;;;;13.00;11.43;;;20.50;99.90;;;;;;5055454;28;20389;-73
2021/07/24 08:16:24;;;;;;;15.15;11.75;;;20.60;99.90;;;;;;5054984;28;20453;-73
2021/07/24 08:18:49;;;;;;;15.27;12.00;;;20.50;99.90;;;;;;5055420;28;20025;-74
2021/07/24 08:21:15;;;;;;;14.60;12.77;;;20.50;99.90;;;;;;5055990;28;20025;-73
2021/07/24 08:23:41;;;;;;;13.35;12.00;;;20.70;99.90;;;;;;5054895;28;20025;-72
2021/07/24 08:26:06;;;;;;;16.90;12.70;;;20.80;99.90;;;;;;5056308;28;20036;-73
2021/07/24 08:28:32;;;;;;;15.40;12.02;;;20.90;99.90;;;;;;5055744;28;20538;-73
2021/07/24 08:30:59;;;;;;;23.35;12.40;;;20.90;99.90;;;;;;5054724;28;20021;-73
2021/07/24 08:33:24;;;;;;;17.85;11.95;;;20.90;99.90;;;;;;5055674;28;20037;-73
2021/07/24 08:35:50;;;;;;;13.93;11.77;;;21.00;99.90;;;;;;5054773;28;20039;-73
2021/07/24 08:38:15;;;;;;;19.27;11.63;;;21.20;99.90;;;;;;5055002;28;20029;-73
2021/07/24 08:40:46;;;;;;;16.13;12.68;;;21.30;99.90;;;;;;5055115;28;20526;-74
2021/07/24 08:43:13;;;;;;;13.15;11.73;;;21.30;99.90;;;;;;5054766;28;20387;-73
2021/07/24 08:45:39;;;;;;;13.93;12.00;;;21.40;99.90;;;;;;5055416;28;20021;-74
2021/07/24 08:48:05;;;;;;;13.27;11.18;;;21.50;99.90;;;;;;5054656;28;20369;-72
2021/07/24 08:50:34;;;;;;;15.23;11.93;;;21.50;99.90;;;;;;5054249;28;20144;-74
2021/07/24 08:53:04;;;;;;;15.82;12.00;;;21.60;99.90;;;;;;5055051;28;20106;-72
2021/07/24 08:55:29;;;;;;;;;;;21.60;99.90;;;;;;5055336;28;20055;-72
2021/07/24 08:57:59;;;;;;;14.55;12.40;;;21.70;99.90;;;;;;5053644;28;19916;-74
2021/07/24 09:00:26;;;;;;;14.82;12.70;;;21.70;99.90;;;;;;5054840;28;20025;-73
2021/07/24 09:02:53;;;;;;;19.63;13.52;;;21.70;99.90;;;;;;5054271;28;20477;-74
2021/07/24 09:05:19;;;;;;;13.68;11.25;;;21.60;99.90;;;;;;5053407;28;20029;-73
2021/07/24 09:07:46;;;;;;;15.00;11.77;;;21.70;99.90;;;;;;5054649;28;20039;-74
2021/07/24 09:10:13;;;;;;;16.40;12.80;;;21.80;99.90;;;;;;5054641;28;20021;-74
2021/07/24 09:12:40;;;;;;;15.63;13.20;;;21.90;99.90;;;;;;5053795;28;20040;-73
2021/07/24 09:15:07;;;;;;;14.07;12.02;;;22.00;99.90;;;;;;5054521;28;20102;-73
2021/07/24 09:17:33;;;;;;;16.33;11.98;;;22.10;99.90;;;;;;5054489;28;20033;-73
2021/07/24 09:19:59;;;;;;;13.80;12.32;;;22.20;99.90;;;;;;5053526;28;20071;-73
2021/07/24 09:22:26;;;;;;;15.02;12.77;;;22.30;99.90;;;;;;5054413;28;20489;-73
2021/07/24 09:25:06;;;;;;;15.05;12.88;;;22.40;99.90;;;;;;5054157;28;20040;-74
2021/07/24 09:27:31;;;;;;;13.68;10.75;;;22.40;99.90;;;;;;5053697;28;20025;-73
2021/07/24 09:29:57;;;;;;;13.43;12.05;;;22.40;99.90;;;;;;5053918;28;20021;-73
2021/07/24 09:32:22;;;;;;;13.55;12.15;;;22.60;99.90;;;;;;5053605;28;20086;-73
2021/07/24 09:34:48;;;;;;;13.02;11.60;;;22.70;99.90;;;;;;5054165;28;20025;-73
2021/07/24 09:37:27;;;;;;;15.73;12.10;;;22.80;99.90;;;;;;5053903;28;20041;-73
2021/07/24 09:40:19;;;;;;;15.48;13.73;;;22.90;99.90;;;;;;5053132;28;20032;-74
2021/07/24 09:42:44;;;;;;;14.45;11.80;;;22.90;99.90;;;;;;5053426;28;20029;-74
2021/07/24 09:45:11;;;;;;;13.55;12.13;;;23.00;99.90;;;;;;5054509;28;20024;-73
2021/07/24 09:47:36;;;;;;;17.77;12.38;;;23.20;99.90;;;;;;5053375;28;20423;-74
2021/07/24 09:50:16;;;;;;;11.70;10.50;;;23.30;99.90;;;;;;5053731;28;20039;-74
2021/07/24 09:52:52;;;;;;;13.23;12.00;;;23.50;99.90;;;;;;5053867;28;20033;-73
2021/07/24 09:55:18;;;;;;;15.75;13.13;;;23.50;99.90;;;;;;5052952;28;20024;-73
2021/07/24 09:57:44;;;;;;;16.98;11.20;;;23.60;99.90;;;;;;5053565;28;20377;-73
2021/07/24 10:00:29;;;;;;;13.25;10.82;;;23.70;99.90;;;;;;5053457;28;20028;-75
2021/07/24 10:03:05;;;;;;;17.08;11.45;;;23.80;99.90;;;;;;5052891;28;20025;-74
2021/07/24 10:05:39;;;;;;;14.25;12.15;;;23.90;99.90;;;;;;5053869;28;20025;-73
2021/07/24 10:08:13;;;;;;;13.20;11.80;;;24.00;99.90;;;;;;5052629;28;20025;-74
2021/07/24 10:10:42;;;;;;;12.18;10.98;;;24.10;99.90;;;;;;5053513;28;20512;-73
2021/07/24 10:13:13;;;;;;;12.63;11.43;;;24.10;99.90;;;;;;5053294;28;20025;-75
2021/07/24 10:15:41;;;;;;;12.85;11.52;;;24.20;99.90;;;;;;5052387;28;20053;-72
2021/07/24 10:18:08;;;;;;;12.50;11.18;;;24.20;99.90;;;;;;5052582;28;20041;-73
2021/07/24 10:20:35;;;;;;;12.95;11.50;;;24.20;99.90;;;;;;5053297;28;20384;-74
2021/07/24 10:23:01;;;;;;;21.50;12.63;;;24.20;99.90;;;;;;5052456;28;20117;-74
2021/07/24 10:25:27;;;;;;;17.13;12.98;;;24.20;99.90;;;;;;5053284;28;20056;-73
2021/07/24 10:27:54;;;;;;;16.15;12.75;;;24.10;99.90;;;;;;5053031;28;20043;-74
2021/07/24 10:30:30;;;;;;;14.18;12.60;;;24.00;99.90;;;;;;5052318;28;20381;-74
2021/07/24 10:32:58;;;;;;;13.65;12.15;;;23.90;99.90;;;;;;5053402;28;20373;-73
2021/07/24 10:35:41;;;;;;;13.85;12.35;;;23.80;99.90;;;;;;5053157;28;20350;-73
2021/07/24 10:38:31;;;;;;;14.35;11.80;;;23.70;99.90;;;;;;5052684;28;20537;-73
2021/07/24 10:41:26;;;;;;;19.75;12.95;;;23.60;99.90;;;;;;5047198;28;20041;-72
2021/07/24 10:44:06;;;;;;;15.40;13.23;;;23.60;99.90;;;;;;5042859;28;20044;-72
2021/07/24 10:46:44;;;;;;;15.93;12.05;;;23.60;99.90;;;;;;5052803;28;20078;-74
2021/07/24 10:49:32;;;;;;;16.65;13.30;;;23.50;99.90;;;;;;5052763;28;20025;-74
2021/07/24 10:52:09;;;;;;;17.23;13.68;;;23.40;99.90;;;;;;5045217;28;20025;-73
2021/07/24 10:55:04;;;;;;;16.08;12.13;;;23.40;99.90;;;;;;5052609;28;20130;-73
2021/07/24 10:57:51;;;;;;;13.57;11.35;;;23.40;99.90;;;;;;5051935;28;20047;-74
2021/07/24 11:00:16;;;;;;;14.93;11.57;;;23.40;99.90;;;;;;5053008;28;20029;-74
2021/07/24 11:02:49;;;;;;;15.02;11.40;;;23.40;99.90;;;;;;5053124;28;20021;-74
2021/07/24 11:05:28;;;;;;;18.63;14.13;;;23.50;99.90;;;;;;5052666;28;20031;-76
2021/07/24 11:07:54;;;;;;;14.48;12.88;;;23.50;99.90;;;;;;5052211;28;20024;-73
2021/07/24 11:10:20;;;;;;;13.50;11.23;;;23.50;99.90;;;;;;5052746;28;20021;-74
2021/07/24 11:12:46;;;;;;;15.52;12.13;;;23.50;99.90;;;;;;5051981;28;20083;-73
2021/07/24 11:15:17;;;;;;;19.63;12.38;;;23.50;99.90;;;;;;5052624;28;20017;-73
2021/07/24 11:17:43;;;;;;;18.95;12.73;;;23.60;99.90;;;;;;5052226;28;20040;-73
2021/07/24 11:20:09;;;;;;;13.63;11.60;;;23.50;99.90;;;;;;5051703;28;20024;-73
2021/07/24 11:23:04;;;;;;;14.50;12.25;;;23.50;99.90;;;;;;5052532;28;20021;-73
2021/07/24 11:25:31;;;;;;;15.07;13.57;;;23.50;99.90;;;;;;5052172;28;20056;-72
2021/07/24 11:27:58;;;;;;;15.93;12.88;;;23.50;99.90;;;;;;5051889;28;20029;-73
2021/07/24 11:30:26;;;;;;;16.45;13.52;;;23.60;99.90;;;;;;5048213;28;20029;-74
2021/07/24 11:32:56;;;;;;;16.42;12.73;;;23.60;99.90;;;;;;5051037;28;20025;-73
2021/07/24 11:35:30;;;;;;;18.55;13.23;;;23.40;99.90;;;;;;5052010;28;20125;-73
2021/07/24 11:37:58;;;;;;;17.65;13.95;;;23.50;99.90;;;;;;5051848;28;20049;-73
2021/07/24 11:40:29;;;;;;;14.10;12.73;;;23.80;99.90;;;;;;5051670;28;20104;-74
2021/07/24 11:43:06;;;;;;;16.75;13.73;;;23.60;99.90;;;;;;5051981;28;20056;-73
2021/07/24 11:45:33;;;;;;;15.00;13.45;;;23.50;99.90;;;;;;5040070;28;20029;-72
2021/07/24 11:48:15;;;;;;;23.15;15.70;;;23.40;99.90;;;;;;5049551;28;20104;-73
2021/07/24 11:50:48;;;;;;;20.42;13.80;;;23.40;99.90;;;;;;5052627;28;20053;-73
2021/07/24 11:53:18;;;;;;;19.15;14.43;;;23.30;99.90;;;;;;5051075;28;20029;-73
2021/07/24 11:55:43;;;;;;;21.98;14.23;;;23.40;99.90;;;;;;5051775;28;20029;-73
2021/07/24 11:58:14;;;;;;;15.85;13.25;;;23.30;99.90;;;;;;5051560;28;20175;-73
2021/07/24 12:00:42;;;;;;;15.43;13.82;;;23.10;99.90;;;;;;5051311;28;20023;-73
2021/07/24 12:03:21;;;;;;;15.55;14.00;;;23.10;99.90;;;;;;5051425;28;20036;-73
2021/07/24 12:05:59;;;;;;;14.63;12.68;;;23.10;99.90;;;;;;5051583;28;20040;-72
2021/07/24 12:08:27;;;;;;;15.10;13.50;;;23.10;99.90;;;;;;5050969;28;20075;-74
2021/07/24 12:10:53;;;;;;;17.25;13.30;;;23.10;99.90;;;;;;5051773;28;20388;-74
2021/07/24 12:13:24;;;;;;;16.85;14.07;;;23.10;99.90;;;;;;5051609;28;21233;-74
2021/07/24 12:16:07;;;;;;;25.83;17.80;;;23.10;99.90;;;;;;5051163;28;20056;-73
2021/07/24 12:18:51;;;;;;;20.45;16.58;;;23.10;99.90;;;;;;5051583;28;20056;-74
2021/07/24 12:21:31;;;;;;;20.75;16.23;;;23.10;99.90;;;;;;5051129;28;20044;-73
2021/07/24 12:23:57;;;;;;;;;;;23.10;99.90;;;;;;5052133;28;20017;-73
2021/07/24 12:26:37;;;;;;;18.38;14.15;;;23.20;99.90;;;;;;5051721;28;19908;-73
2021/07/24 12:29:08;;;;;;;20.73;15.50;;;23.10;99.90;;;;;;5050799;28;20029;-73
2021/07/24 12:31:41;;;;;;;19.45;15.15;;;23.20;99.90;;;;;;5051948;28;20162;-74
2021/07/24 12:34:17;;;;;;;19.38;16.02;;;23.10;99.90;;;;;;5051645;28;20033;-73
2021/07/24 12:37:00;;;;;;;23.20;16.20;;;23.20;99.90;;;;;;5050970;28;20045;-74